Time;durP1;ratioP1;P1;durP2;ratioP2;P2;SDS_P1;SDS_P2;PMS_P1;PMS_P2;Temp;Humidity;BMP_temperature;BMP_pressure;BME280_temperature;BME280_humidity;BME280_pressure;Samples;Min_cycle;Max_cycle;Signal;HPM_P1;HPM_P2
2021/06/25 00:02:17;;;;;;;;;;;;;;;19.07;68.09;100669.66;5056348;28;815;-38
2021/06/25 00:04:42;;;;;;;;;;;;;;;19.22;68.20;100668.69;5056063;28;732;-46
2021/06/25 00:07:08;;;;;;;;;;;;;;;19.09;67.69;100659.19;5056624;28;756;-38
2021/06/25 00:09:33;;;;;;;;;;;;;;;18.80;66.32;100663.59;5056656;28;795;-59
2021/06/25 00:11:59;;;;;;;;;;;;;;;18.37;65.57;100659.88;5055912;28;1974;-38
2021/06/25 00:14:24;;;;;;;;;;;;;;;18.29;64.06;100662.13;5038317;28;1262;-54
2021/06/25 00:16:50;;;;;;;;;;;;;;;18.35;62.58;100659.34;5038742;28;1214;-38
2021/06/25 00:19:15;;;;;;;;;;;;;;;18.19;62.13;100650.38;5056355;28;783;-39
2021/06/25 00:21:41;;;;;;;;;;;;;;;18.20;62.67;100652.03;5055855;28;1302;-38
2021/06/25 00:24:06;;;;;;;;;;;;;;;18.66;64.37;100648.03;5056035;28;1143;-38
2021/06/25 00:26:32;;;;;;;;;;;;;;;18.70;66.18;100660.13;5038182;28;1000;-38
2021/06/25 00:28:57;;;;;;;;;;;;;;;18.74;67.28;100655.69;5051163;28;1018;-44
2021/06/25 00:31:23;;;;;;;;;;;;;;;18.74;67.63;100645.47;5036302;28;764;-55
2021/06/25 00:33:48;;;;;;;;;;;;;;;18.85;68.66;100656.41;5035688;28;1910;-38
2021/06/25 00:36:13;;;;;;;;;;;;;;;19.01;68.44;100654.31;5036666;28;709;-38
2021/06/25 00:38:39;;;;;;;;;;;;;;;18.91;67.16;100649.75;5036266;28;828;-38
2021/06/25 00:41:04;;;;;;;;;;;;;;;18.60;65.62;100650.84;5036209;28;800;-58
2021/06/25 00:43:30;;;;;;;;;;;;;;;18.50;65.43;100639.13;5036725;28;967;-37
2021/06/25 00:45:55;;;;;;;;;;;;;;;18.71;65.50;100640.56;5056124;28;860;-58
2021/06/25 00:48:21;;;;;;;;;;;;;;;18.90;66.82;100637.06;5057604;28;812;-40
2021/06/25 00:50:46;;;;;;;;;;;;;;;18.94;67.68;100633.47;5041648;28;920;-37
2021/06/25 00:53:12;;;;;;;;;;;;;;;19.05;67.70;100625.88;5042239;28;1983;-38
2021/06/25 00:55:46;;;;;;;;;;;;;;;19.07;68.31;100637.44;5059159;28;918;-43
2021/06/25 00:58:12;;;;;;;;;;;;;;;19.33;68.18;100639.88;5059790;28;851;-41
2021/06/25 01:00:37;;;;;;;;;;;;;;;19.41;68.28;100630.94;5059416;28;975;-38
2021/06/25 01:03:03;;;;;;;;;;;;;;;19.26;69.17;100639.41;5059117;28;826;-59
2021/06/25 01:05:28;;;;;;;;;;;;;;;19.46;68.89;100639.16;5059807;28;788;-38
2021/06/25 01:07:54;;;;;;;;;;;;;;;19.53;68.91;100626.91;5059574;28;849;-58
2021/06/25 01:10:19;;;;;;;;;;;;;;;19.44;67.86;100610.22;5040949;28;888;-38
2021/06/25 01:12:45;;;;;;;;;;;;;;;19.18;66.10;100607.81;5059416;28;1910;-38
2021/06/25 01:15:11;;;;;;;;;;;;;;;18.75;64.98;100613.25;5024203;28;1023;-37
2021/06/25 01:17:37;;;;;;;;;;;;;;;18.54;63.34;100607.16;5041067;28;1448;-38
2021/06/25 01:20:04;;;;;;;;;;;;;;;18.33;62.47;100604.59;5059383;28;799;-37
2021/06/25 01:22:34;;;;;;;;;;;;;;;18.24;61.14;100604.41;5059426;28;1033;-38
2021/06/25 01:25:04;;;;;;;;;;;;;;;18.53;62.58;100598.03;5043816;28;1112;-37
2021/06/25 01:27:29;;;;;;;;;;;;;;;18.75;65.04;100597.53;5022039;28;784;-38
2021/06/25 01:29:56;;;;;;;;;;;;;;;18.67;67.04;100598.19;5051536;28;1022;-38
2021/06/25 01:32:21;;;;;;;;;;;;;;;18.86;67.91;100597.41;5058757;28;1973;-37
2021/06/25 01:34:46;;;;;;;;;;;;;;;19.17;68.29;100599.81;5059215;28;883;-38
2021/06/25 01:37:12;;;;;;;;;;;;;;;19.23;68.54;100601.41;5058859;28;823;-38
2021/06/25 01:39:37;;;;;;;;;;;;;;;19.31;67.13;100593.28;5040953;28;772;-38
2021/06/25 01:42:03;;;;;;;;;;;;;;;18.81;66.64;100590.84;5041154;28;803;-38
2021/06/25 01:44:28;;;;;;;;;;;;;;;18.43;65.77;100595.41;5040082;28;1027;-38
2021/06/25 01:46:54;;;;;;;;;;;;;;;18.59;64.26;100587.78;5058467;28;799;-38
2021/06/25 01:49:19;;;;;;;;;;;;;;;18.45;64.78;100587.66;5058857;28;783;-39
2021/06/25 01:51:48;;;;;;;;;;;;;;;18.37;65.76;100586.38;5040716;28;744;-39
2021/06/25 01:54:13;;;;;;;;;;;;;;;18.39;66.11;100581.38;5058573;28;1918;-40
2021/06/25 01:56:39;;;;;;;;;;;;;;;18.58;65.94;100578.72;5058605;28;811;-38
2021/06/25 01:59:04;;;;;;;;;;;;;;;18.46;66.36;100578.28;5057832;28;967;-38
2021/06/25 02:01:30;;;;;;;;;;;;;;;18.44;66.30;100578.59;5040452;28;844;-37
2021/06/25 02:03:58;;;;;;;;;;;;;;;18.29;67.16;100576.00;5058628;28;767;-38
2021/06/25 02:06:23;;;;;;;;;;;;;;;18.65;66.13;100575.63;5058211;28;831;-39
2021/06/25 02:08:49;;;;;;;;;;;;;;;18.75;66.10;100570.00;5058180;28;518;-38
2021/06/25 02:11:17;;;;;;;;;;;;;;;18.55;66.94;100571.06;5058231;28;748;-58
2021/06/25 02:13:42;;;;;;;;;;;;;;;18.47;67.26;100578.00;5058153;28;1913;-39
2021/06/25 02:16:07;;;;;;;;;;;;;;;18.67;66.89;100569.81;5057916;28;780;-39
2021/06/25 02:18:33;;;;;;;;;;;;;;;18.80;66.62;100572.69;5058060;28;993;-56
2021/06/25 02:20:58;;;;;;;;;;;;;;;18.74;66.44;100567.53;5058182;28;873;-48
2021/06/25 02:23:24;;;;;;;;;;;;;;;18.43;66.63;100574.19;5057591;28;1064;-37
2021/06/25 02:25:49;;;;;;;;;;;;;;;18.51;67.24;100580.16;5058352;28;827;-38
2021/06/25 02:28:15;;;;;;;;;;;;;;;18.64;67.40;100571.22;5058176;28;715;-47
2021/06/25 02:30:40;;;;;;;;;;;;;;;18.70;66.96;100561.78;5038415;28;967;-38
2021/06/25 02:33:06;;;;;;;;;;;;;;;18.83;66.46;100560.28;5037800;28;1917;-38
2021/06/25 02:35:31;;;;;;;;;;;;;;;18.73;67.01;100569.47;5037790;28;752;-59
2021/06/25 02:37:57;;;;;;;;;;;;;;;18.69;66.97;100571.19;5037650;28;736;-38
2021/06/25 02:40:23;;;;;;;;;;;;;;;18.57;67.46;100573.50;5037609;28;803;-38
2021/06/25 02:42:48;;;;;;;;;;;;;;;18.70;67.22;100577.50;5037964;28;1005;-38
2021/06/25 02:45:13;;;;;;;;;;;;;;;18.63;67.56;100575.09;5052942;28;955;-38
2021/06/25 02:47:39;;;;;;;;;;;;;;;18.73;67.18;100576.91;5039557;28;800;-38
2021/06/25 02:50:05;;;;;;;;;;;;;;;18.44;66.09;100575.84;5057958;28;771;-58
2021/06/25 02:52:31;;;;;;;;;;;;;;;18.71;67.44;100573.63;5057613;28;1973;-38
2021/06/25 02:54:56;;;;;;;;;;;;;;;19.06;67.31;100574.34;5057333;28;816;-38
2021/06/25 02:57:22;;;;;;;;;;;;;;;18.94;66.50;100569.25;5057696;28;792;-38
2021/06/25 02:59:47;;;;;;;;;;;;;;;18.62;65.31;100565.16;5057254;28;1030;-38
2021/06/25 03:02:13;;;;;;;;;;;;;;;18.34;64.39;100562.19;5056958;28;775;-38
2021/06/25 03:04:38;;;;;;;;;;;;;;;18.33;63.76;100557.78;5057712;28;756;-42
2021/06/25 03:07:04;;;;;;;;;;;;;;;18.54;63.48;100552.06;5057060;28;748;-38
2021/06/25 03:09:29;;;;;;;;;;;;;;;18.57;64.85;100551.47;5057223;28;744;-58
2021/06/25 03:11:54;;;;;;;;;;;;;;;18.63;66.38;100555.81;5056661;28;775;-59
2021/06/25 03:14:20;;;;;;;;;;;;;;;18.84;66.68;100567.41;5056826;28;2015;-39
2021/06/25 03:16:46;;;;;;;;;;;;;;;18.81;67.67;100563.28;5039105;28;1078;-37
2021/06/25 03:19:11;;;;;;;;;;;;;;;19.06;67.40;100560.56;5057158;28;739;-37
2021/06/25 03:21:36;;;;;;;;;;;;;;;19.09;68.11;100562.72;5038898;28;969;-38
2021/06/25 03:24:02;;;;;;;;;;;;;;;19.24;67.72;100558.94;5049511;28;1100;-37
2021/06/25 03:26:27;;;;;;;;;;;;;;;19.43;67.45;100558.94;5037185;28;800;-36
2021/06/25 03:28:53;;;;;;;;;;;;;;;19.22;68.44;100561.16;5040878;28;976;-37
2021/06/25 03:31:20;;;;;;;;;;;;;;;18.93;67.02;100564.88;5056531;28;740;-36
2021/06/25 03:33:45;;;;;;;;;;;;;;;18.72;65.96;100555.97;5038671;28;1913;-36
2021/06/25 03:36:11;;;;;;;;;;;;;;;18.67;63.92;100558.81;5056556;28;839;-37
2021/06/25 03:38:36;;;;;;;;;;;;;;;18.69;66.11;100560.16;5056517;28;811;-37
2021/06/25 03:41:01;;;;;;;;;;;;;;;18.87;67.86;100558.56;5056882;28;776;-36
2021/06/25 03:43:27;;;;;;;;;;;;;;;18.90;68.31;100562.69;5056532;28;1010;-36
2021/06/25 03:45:52;;;;;;;;;;;;;;;18.96;68.12;100564.28;5037683;28;1139;-37
2021/06/25 03:48:18;;;;;;;;;;;;;;;19.19;67.51;100573.59;5036392;28;760;-37
2021/06/25 03:50:43;;;;;;;;;;;;;;;19.27;67.11;100577.66;5036533;28;835;-37
2021/06/25 03:53:09;;;;;;;;;;;;;;;18.93;66.67;100581.41;5038581;28;1910;-43
2021/06/25 03:55:34;;;;;;;;;;;;;;;18.60;66.18;100567.41;5056484;28;787;-40
2021/06/25 03:58:00;;;;;;;;;;;;;;;18.54;66.43;100574.09;5056182;28;807;-42
2021/06/25 04:00:25;;;;;;;;;;;;;;;18.51;65.99;100569.16;5038920;28;960;-37
2021/06/25 04:02:51;;;;;;;;;;;;;;;18.54;64.36;100580.41;5036499;28;771;-37
2021/06/25 04:05:16;;;;;;;;;;;;;;;18.22;64.21;100584.59;5036472;28;808;-37
2021/06/25 04:07:42;;;;;;;;;;;;;;;18.01;64.42;100583.94;5036012;28;760;-37
2021/06/25 04:10:09;;;;;;;;;;;;;;;18.27;65.44;100586.47;5036382;28;791;-38
2021/06/25 04:12:34;;;;;;;;;;;;;;;18.59;66.78;100587.78;5036679;28;1977;-37
2021/06/25 04:15:00;;;;;;;;;;;;;;;18.74;67.82;100582.13;5038222;28;956;-37
2021/06/25 04:17:25;;;;;;;;;;;;;;;18.66;69.25;100587.47;5056252;28;764;-38
2021/06/25 04:19:51;;;;;;;;;;;;;;;18.75;69.13;100586.53;5038226;28;1111;-37
2021/06/25 04:22:17;;;;;;;;;;;;;;;18.64;69.28;100579.50;5057735;28;1174;-37
2021/06/25 04:24:42;;;;;;;;;;;;;;;18.98;67.93;100589.59;5047562;28;1144;-37
2021/06/25 04:27:08;;;;;;;;;;;;;;;19.06;69.47;100588.94;5040528;28;799;-37
2021/06/25 04:29:33;;;;;;;;;;;;;;;18.97;72.01;100585.19;5049487;28;959;-37
2021/06/25 04:32:00;;;;;;;;;;;;;;;19.46;70.98;100596.94;5060088;28;858;-37
2021/06/25 04:34:25;;;;;;;;;;;;;;;19.58;70.50;100589.06;5060125;28;2050;-37
2021/06/25 04:36:51;;;;;;;;;;;;;;;19.63;70.68;100588.19;5059872;28;721;-37
2021/06/25 04:39:16;;;;;;;;;;;;;;;19.60;70.83;100591.50;5059842;28;779;-45
2021/06/25 04:41:41;;;;;;;;;;;;;;;20.19;68.31;100594.75;5060155;28;744;-39
2021/06/25 04:44:07;;;;;;;;;;;;;;;19.62;69.02;100603.06;5059417;28;1014;-37
2021/06/25 04:46:33;;;;;;;;;;;;;;;19.30;69.99;100594.41;5059816;28;828;-37
2021/06/25 04:48:58;;;;;;;;;;;;;;;19.57;68.39;100598.47;5059823;28;815;-37
2021/06/25 04:51:24;;;;;;;;;;;;;;;19.41;68.87;100606.13;5059729;28;771;-37
2021/06/25 04:53:49;;;;;;;;;;;;;;;19.42;68.68;100607.75;5060040;28;1910;-37
2021/06/25 04:56:15;;;;;;;;;;;;;;;19.32;68.88;100610.66;5059957;28;783;-37
2021/06/25 04:58:40;;;;;;;;;;;;;;;19.43;68.26;100605.81;5059317;28;994;-37
2021/06/25 05:01:06;;;;;;;;;;;;;;;19.32;68.42;100608.72;5041405;28;991;-37
2021/06/25 05:03:33;;;;;;;;;;;;;;;19.74;66.90;100605.38;5059692;28;776;-37
2021/06/25 05:05:58;;;;;;;;;;;;;;;19.81;66.55;100600.31;5059307;28;830;-37
2021/06/25 05:08:24;;;;;;;;;;;;;;;19.95;65.29;100600.38;5045684;28;1163;-37
2021/06/25 05:10:49;;;;;;;;;;;;;;;19.63;66.17;100593.69;5039511;28;767;-37
2021/06/25 05:13:16;;;;;;;;;;;;;;;19.77;66.44;100594.56;5021514;28;1918;-37
2021/06/25 05:15:41;;;;;;;;;;;;;;;19.92;66.10;100587.19;5058070;28;956;-37
2021/06/25 05:18:11;;;;;;;;;;;;;;;20.16;65.65;100584.28;5059185;28;835;-38
2021/06/25 05:20:36;;;;;;;;;;;;;;;20.24;65.51;100583.59;5041567;28;1095;-37
2021/06/25 05:23:01;;;;;;;;;;;;;;;20.22;65.53;100580.34;5058637;28;1198;-37
2021/06/25 05:25:27;;;;;;;;;;;;;;;20.19;65.60;100580.94;5040455;28;1112;-37
2021/06/25 05:27:52;;;;;;;;;;;;;;;20.48;64.59;100585.38;5039011;28;752;-37
2021/06/25 05:30:18;;;;;;;;;;;;;;;20.35;65.13;100587.00;5036578;28;1011;-37
2021/06/25 05:32:44;;;;;;;;;;;;;;;20.59;64.18;100580.50;5059172;28;1919;-37
2021/06/25 05:35:09;;;;;;;;;;;;;;;20.44;64.59;100574.16;5040561;28;764;-38
2021/06/25 05:37:35;;;;;;;;;;;;;;;20.57;64.35;100571.72;5059144;28;776;-37
2021/06/25 05:40:00;;;;;;;;;;;;;;;20.63;64.32;100564.94;5038458;28;1096;-37
2021/06/25 05:42:26;;;;;;;;;;;;;;;20.58;64.27;100567.81;5038794;28;831;-37
2021/06/25 05:44:52;;;;;;;;;;;;;;;20.60;64.23;100560.03;5050749;28;972;-38
2021/06/25 05:47:17;;;;;;;;;;;;;;;20.79;63.60;100558.03;5041224;28;1105;-36
2021/06/25 05:49:43;;;;;;;;;;;;;;;20.78;63.59;100555.56;5058551;28;795;-36
2021/06/25 05:52:08;;;;;;;;;;;;;;;20.78;63.87;100550.06;5058653;28;1981;-37
2021/06/25 05:54:33;;;;;;;;;;;;;;;20.95;63.22;100552.19;5058697;28;801;-37
2021/06/25 05:56:59;;;;;;;;;;;;;;;20.89;63.30;100547.88;5040689;28;812;-37
2021/06/25 05:59:24;;;;;;;;;;;;;;;20.98;62.97;100538.56;5057718;28;1018;-36
2021/06/25 06:01:50;;;;;;;;;;;;;;;21.01;62.85;100537.13;5040907;28;1198;-36
2021/06/25 06:04:15;;;;;;;;;;;;;;;21.05;62.91;100529.03;5058315;28;832;-37
2021/06/25 06:06:41;;;;;;;;;;;;;;;20.96;63.27;100534.47;5058153;28;748;-37
2021/06/25 06:09:06;;;;;;;;;;;;;;;20.76;63.77;100536.53;5040399;28;824;-37
2021/06/25 06:11:32;;;;;;;;;;;;;;;20.48;63.72;100535.69;5058292;28;744;-38
2021/06/25 06:13:57;;;;;;;;;;;;;;;19.80;63.89;100532.50;5057635;28;2336;-37
2021/06/25 06:16:23;;;;;;;;;;;;;;;19.23;63.93;100536.06;5058185;28;836;-37
2021/06/25 06:18:49;;;;;;;;;;;;;;;18.81;63.70;100534.94;5058003;28;928;-38
2021/06/25 06:21:15;;;;;;;;;;;;;;;18.62;64.74;100532.97;5058223;28;798;-37
2021/06/25 06:32:01;;;;;;;;;;;;;;;18.50;65.93;100529.00;5057673;28;844;-39
2021/06/25 06:34:27;;;;;;;;;;;;;;;18.67;63.71;100529.31;5057911;28;1913;-37
2021/06/25 06:36:53;;;;;;;;;;;;;;;18.63;62.34;100523.59;5057832;28;850;-37
2021/06/25 06:39:18;;;;;;;;;;;;;;;18.62;61.41;100519.19;5039276;28;907;-37
2021/06/25 06:41:44;;;;;;;;;;;;;;;18.69;60.09;100520.75;5057822;28;506;-38
2021/06/25 06:44:09;;;;;;;;;;;;;;;18.72;59.46;100515.50;5057141;28;1088;-37
2021/06/25 06:46:35;;;;;;;;;;;;;;;18.75;58.62;100517.66;5056649;28;768;-37
2021/06/25 06:49:00;;;;;;;;;;;;;;;18.67;58.51;100517.50;5057670;28;816;-37
2021/06/25 06:51:26;;;;;;;;;;;;;;;18.64;58.50;100513.38;5056891;28;752;-37
2021/06/25 06:53:52;;;;;;;;;;;;;;;18.78;59.14;100513.50;5057365;28;1917;-37
2021/06/25 06:56:21;;;;;;;;;;;;;;;18.81;61.08;100518.41;5057613;28;743;-37
2021/06/25 06:58:48;;;;;;;;;;;;;;;19.18;62.53;100514.09;5056943;28;1018;-37
2021/06/25 07:01:13;;;;;;;;;;;;;;;19.36;64.92;100517.94;5057077;28;787;-37
2021/06/25 07:03:38;;;;;;;;;;;;;;;19.59;66.30;100513.47;5057393;28;823;-36
2021/06/25 07:06:04;;;;;;;;;;;;;;;19.75;67.26;100507.69;5056874;28;743;-36
2021/06/25 07:08:30;;;;;;;;;;;;;;;19.91;68.03;100516.56;5057185;28;783;-37
2021/06/25 07:10:55;;;;;;;;;;;;;;;19.85;67.92;100515.81;5038923;28;850;-36
2021/06/25 07:13:21;;;;;;;;;;;;;;;19.24;66.04;100517.59;5056951;28;1917;-37
2021/06/25 07:15:46;;;;;;;;;;;;;;;18.79;62.31;100513.19;5057016;28;1002;-37
2021/06/25 07:18:12;;;;;;;;;;;;;;;18.19;59.17;100510.03;5057041;28;819;-36
2021/06/25 07:20:38;;;;;;;;;;;;;;;17.65;59.41;100509.94;5056320;28;818;-37
2021/06/25 07:23:03;;;;;;;;;;;;;;;17.99;63.40;100517.38;5057026;28;1116;-37
2021/06/25 07:25:29;;;;;;;;;;;;;;;18.43;67.05;100510.88;5056940;28;1262;-37
2021/06/25 07:27:55;;;;;;;;;;;;;;;18.78;69.21;100500.53;5056394;28;835;-36
2021/06/25 07:30:20;;;;;;;;;;;;;;;19.09;69.90;100518.63;5040223;28;959;-37
2021/06/25 07:32:46;;;;;;;;;;;;;;;19.22;70.82;100517.06;5036920;28;1976;-36
2021/06/25 07:35:12;;;;;;;;;;;;;;;19.40;70.89;100513.47;5036317;28;854;-37
2021/06/25 07:37:37;;;;;;;;;;;;;;;19.45;71.64;100516.16;5036824;28;748;-37
2021/06/25 07:40:03;;;;;;;;;;;;;;;19.64;71.48;100521.66;5036547;28;836;-36
2021/06/25 07:42:29;;;;;;;;;;;;;;;19.83;71.43;100515.31;5036469;28;764;-37
2021/06/25 07:44:54;;;;;;;;;;;;;;;19.87;71.69;100507.28;5049343;28;964;-36
2021/06/25 07:47:19;;;;;;;;;;;;;;;19.98;71.43;100512.28;5038803;28;1115;-37
2021/06/25 07:49:45;;;;;;;;;;;;;;;20.03;71.44;100522.41;5055995;28;812;-58
2021/06/25 07:52:11;;;;;;;;;;;;;;;20.17;71.17;100527.97;5056459;28;792;-37
2021/06/25 07:54:36;;;;;;;;;;;;;;;20.16;71.21;100532.69;5056469;28;1906;-36
2021/06/25 07:57:02;;;;;;;;;;;;;;;19.99;70.09;100529.66;5056354;28;800;-36
2021/06/25 07:59:27;;;;;;;;;;;;;;;19.42;67.62;100536.06;5056685;28;963;-37
2021/06/25 08:01:53;;;;;;;;;;;;;;;18.74;65.73;100535.28;5055990;28;795;-37
2021/06/25 08:04:18;;;;;;;;;;;;;;;18.50;63.19;100540.00;5056144;28;760;-36
2021/06/25 08:06:44;;;;;;;;;;;;;;;18.05;61.48;100531.91;5022298;28;776;-36
2021/06/25 08:09:09;;;;;;;;;;;;;;;17.83;61.35;100524.09;5056119;28;744;-36
2021/06/25 08:11:35;;;;;;;;;;;;;;;18.07;63.49;100529.69;5055852;28;807;-36
2021/06/25 08:14:00;;;;;;;;;;;;;;;18.58;66.53;100533.81;5020690;28;1973;-37
2021/06/25 08:16:26;;;;;;;;;;;;;;;18.94;68.32;100527.91;5056119;28;828;-37
2021/06/25 08:18:57;;;;;;;;;;;;;;;19.06;70.05;100539.34;5056164;28;845;-36
2021/06/25 08:21:25;;;;;;;;;;;;;;;19.23;70.56;100543.53;5056026;28;823;-37
2021/06/25 08:23:51;;;;;;;;;;;;;;;19.34;70.54;100547.78;5032165;28;1141;-37
2021/06/25 08:26:16;;;;;;;;;;;;;;;19.36;72.05;100548.28;5018319;28;906;-36
2021/06/25 08:28:42;;;;;;;;;;;;;;;19.64;71.72;100548.41;5038576;28;1018;-36
2021/06/25 08:31:07;;;;;;;;;;;;;;;19.77;71.93;100544.91;5055696;28;827;-36
2021/06/25 08:33:33;;;;;;;;;;;;;;;19.85;71.85;100557.22;5055694;28;1913;-39
2021/06/25 08:35:58;;;;;;;;;;;;;;;20.03;71.61;100558.28;5056554;28;764;-37
2021/06/25 08:38:23;;;;;;;;;;;;;;;20.07;71.62;100548.28;5056028;28;783;-37
2021/06/25 08:40:49;;;;;;;;;;;;;;;20.30;70.86;100562.25;5055719;28;760;-37
2021/06/25 08:43:15;;;;;;;;;;;;;;;20.12;71.47;100558.44;5055978;28;804;-37
2021/06/25 08:45:40;;;;;;;;;;;;;;;19.56;68.98;100560.13;5055613;28;983;-37
2021/06/25 08:48:07;;;;;;;;;;;;;;;19.06;66.25;100553.09;5046250;28;825;-37
2021/06/25 08:50:35;;;;;;;;;;;;;;;18.47;64.59;100557.91;5035984;28;751;-36
2021/06/25 08:53:01;;;;;;;;;;;;;;;18.16;62.71;100555.47;5035518;28;1902;-36
2021/06/25 08:55:26;;;;;;;;;;;;;;;18.00;61.45;100554.78;5035813;28;798;-42
2021/06/25 08:57:51;;;;;;;;;;;;;;;18.03;61.17;100554.19;5035883;28;803;-36
2021/06/25 09:00:17;;;;;;;;;;;;;;;18.42;63.77;100556.03;5051202;28;1031;-36
2021/06/25 09:02:44;;;;;;;;;;;;;;;18.71;66.92;100552.41;5055737;28;843;-37
2021/06/25 09:05:21;;;;;;;;;;;;;;;18.89;69.21;100550.03;5055781;28;858;-37
2021/06/25 09:07:47;;;;;;;;;;;;;;;19.12;70.48;100540.88;5038098;28;1107;-37
2021/06/25 09:10:13;;;;;;;;;;;;;;;19.41;71.01;100542.69;5058564;28;835;-37
2021/06/25 09:12:38;;;;;;;;;;;;;;;19.62;71.46;100525.84;5059111;28;1905;-37
2021/06/25 09:15:07;;;;;;;;;;;;;;;19.62;72.21;100520.34;5059276;28;1014;-37
2021/06/25 09:17:51;;;;;;;;;;;;;;;19.83;72.05;100524.41;5059112;28;944;-37
2021/06/25 09:20:27;;;;;;;;;;;;;;;19.84;72.40;100514.22;5059082;28;772;-37
2021/06/25 09:22:53;;;;;;;;;;;;;;;20.08;71.22;100514.06;5059089;28;1036;-36
2021/06/25 09:25:18;;;;;;;;;;;;;;;20.16;70.25;100513.34;5040778;28;1257;-37
2021/06/25 09:27:44;;;;;;;;;;;;;;;20.15;71.15;100522.75;5059597;28;783;-37
2021/06/25 09:30:10;;;;;;;;;;;;;;;19.99;72.06;100516.69;5059037;28;1006;-37
2021/06/25 09:32:36;;;;;;;;;;;;;;;19.99;70.38;100529.66;5058686;28;1989;-37
2021/06/25 09:35:11;;;;;;;;;;;;;;;19.31;68.12;100529.88;5058910;28;768;-36
2021/06/25 09:37:39;;;;;;;;;;;;;;;18.76;65.74;100535.84;5059071;28;767;-37
2021/06/25 09:40:07;;;;;;;;;;;;;;;18.40;63.40;100536.22;5058884;28;756;-36
2021/06/25 09:42:33;;;;;;;;;;;;;;;18.02;61.96;100541.56;5058593;28;824;-37
2021/06/25 09:44:59;;;;;;;;;;;;;;;18.00;59.55;100549.28;5023465;28;1244;-36
2021/06/25 09:47:28;;;;;;;;;;;;;;;17.79;59.25;100551.34;5058741;28;795;-36
2021/06/25 09:50:09;;;;;;;;;;;;;;;18.32;62.81;100547.06;5058537;28;779;-37
2021/06/25 09:52:53;;;;;;;;;;;;;;;18.76;66.30;100548.75;5058591;28;1906;-36
2021/06/25 09:55:23;;;;;;;;;;;;;;;18.97;68.79;100554.88;5038101;28;813;-37
2021/06/25 09:58:11;;;;;;;;;;;;;;;19.19;70.41;100557.06;5038633;28;752;-36
2021/06/25 10:01:38;;;;;;;;;;;;;;;19.49;71.05;100558.56;5056939;28;998;-36
2021/06/25 10:03:32;;;;;;;;;;;;;;;19.60;71.96;100550.13;5044208;28;1304;-36
2021/06/25 10:06:07;;;;;;;;;;;;;;;19.67;72.44;100543.13;5058818;28;788;-37
2021/06/25 10:08:32;;;;;;;;;;;;;;;19.93;72.05;100552.97;5058448;28;743;-37
2021/06/25 10:10:58;;;;;;;;;;;;;;;19.98;72.08;100550.13;5040091;28;844;-37
2021/06/25 10:13:23;;;;;;;;;;;;;;;20.00;72.31;100542.34;5040459;28;1902;-37
2021/06/25 10:15:49;;;;;;;;;;;;;;;20.14;71.57;100536.88;5057887;28;1015;-37
2021/06/25 10:18:14;;;;;;;;;;;;;;;19.96;70.05;100533.88;5058102;28;743;-37
2021/06/25 10:20:40;;;;;;;;;;;;;;;19.18;68.25;100524.28;5040422;28;807;-37
2021/06/25 10:23:07;;;;;;;;;;;;;;;18.80;65.26;100527.78;5040211;28;991;-37
2021/06/25 10:25:32;;;;;;;;;;;;;;;18.12;63.29;100524.94;5057540;28;1322;-37
2021/06/25 10:27:58;;;;;;;;;;;;;;;18.00;61.36;100519.00;5058092;28;837;-37
2021/06/25 10:30:23;;;;;;;;;;;;;;;18.01;60.36;100512.41;5056128;28;892;-37
2021/06/25 10:32:49;;;;;;;;;;;;;;;18.53;64.40;100503.63;5040086;28;1886;-36
2021/06/25 10:35:14;;;;;;;;;;;;;;;18.81;67.50;100505.44;5057892;28;791;-37
2021/06/25 10:37:40;;;;;;;;;;;;;;;19.05;69.53;100510.13;5040319;28;776;-36
2021/06/25 10:40:25;;;;;;;;;;;;;;;19.34;70.52;100514.69;5057377;28;744;-37
2021/06/25 10:42:50;;;;;;;;;;;;;;;19.58;71.06;100513.78;5039860;28;885;-37
2021/06/25 10:45:16;;;;;;;;;;;;;;;19.75;71.57;100518.75;5023301;28;1119;-37
2021/06/25 10:47:51;;;;;;;;;;;;;;;19.77;72.34;100528.34;5057248;28;759;-37
2021/06/25 10:50:20;;;;;;;;;;;;;;;19.97;72.16;100534.69;5057664;28;783;-37
2021/06/25 10:53:04;;;;;;;;;;;;;;;20.00;72.37;100534.06;5057373;28;1978;-37
2021/06/25 10:55:30;;;;;;;;;;;;;;;20.29;71.55;100544.06;5039598;28;784;-37
2021/06/25 10:57:55;;;;;;;;;;;;;;;20.18;70.94;100541.47;5057398;28;830;-37
2021/06/25 11:00:41;;;;;;;;;;;;;;;19.52;69.87;100537.03;5057197;28;1010;-37
2021/06/25 11:03:07;;;;;;;;;;;;;;;19.00;66.67;100546.03;5040433;28;1661;-36
2021/06/25 11:05:32;;;;;;;;;;;;;;;18.67;63.44;100536.78;5039302;28;809;-36
2021/06/25 11:08:18;;;;;;;;;;;;;;;18.38;61.07;100530.19;5039063;28;894;-36
2021/06/25 11:10:50;;;;;;;;;;;;;;;18.14;58.39;100532.91;5056937;28;799;-37
2021/06/25 11:13:16;;;;;;;;;;;;;;;18.04;58.24;100530.28;5056967;28;1914;-37
2021/06/25 11:15:43;;;;;;;;;;;;;;;18.44;62.18;100526.28;5038938;28;999;-37
2021/06/25 11:18:15;;;;;;;;;;;;;;;18.79;65.76;100526.16;5056817;28;842;-37
2021/06/25 11:20:50;;;;;;;;;;;;;;;19.07;68.33;100523.59;5038933;28;780;-37
2021/06/25 11:23:18;;;;;;;;;;;;;;;19.17;70.42;100517.13;5038784;28;1192;-36
2021/06/25 11:25:51;;;;;;;;;;;;;;;19.43;70.63;100523.94;5056985;28;747;-37
2021/06/25 11:28:26;;;;;;;;;;;;;;;19.51;70.85;100502.31;5056796;28;787;-36
2021/06/25 11:30:54;;;;;;;;;;;;;;;19.64;71.97;100510.63;5018525;28;1425;-36
2021/06/25 11:33:26;;;;;;;;;;;;;;;19.77;72.15;100492.50;5036680;28;1979;-57
2021/06/25 11:35:52;;;;;;;;;;;;;;;19.85;72.30;100484.66;5036593;28;799;-37
2021/06/25 11:38:17;;;;;;;;;;;;;;;19.92;72.38;100482.31;5036853;28;783;-36
2021/06/25 11:40:49;;;;;;;;;;;;;;;20.05;72.07;100489.81;5042315;28;1341;-36
2021/06/25 11:43:15;;;;;;;;;;;;;;;20.16;71.31;100496.78;5047030;28;1116;-36
2021/06/25 11:45:45;;;;;;;;;;;;;;;19.64;69.11;100510.63;5055848;28;963;-36
2021/06/25 11:48:10;;;;;;;;;;;;;;;18.96;66.82;100520.19;5020443;28;1128;-36
2021/06/25 11:50:38;;;;;;;;;;;;;;;18.59;64.14;100544.56;5002815;28;923;-37
2021/06/25 11:53:04;;;;;;;;;;;;;;;18.16;62.31;100544.47;5036287;28;1914;-36
2021/06/25 11:55:29;;;;;;;;;;;;;;;18.07;59.79;100536.00;5018707;28;811;-37
2021/06/25 11:57:55;;;;;;;;;;;;;;;17.95;59.84;100527.34;5036577;28;787;-37
2021/06/25 12:00:21;;;;;;;;;;;;;;;18.43;62.09;100497.09;5053325;28;1137;-38
2021/06/25 12:02:56;;;;;;;;;;;;;;;18.66;65.64;100526.88;5056295;28;751;-36
2021/06/25 12:05:24;;;;;;;;;;;;;;;18.81;68.09;100560.53;5056318;28;768;-37
2021/06/25 12:08:01;;;;;;;;;;;;;;;18.98;69.45;100584.06;5056052;28;763;-37
2021/06/25 12:10:26;;;;;;;;;;;;;;;19.15;70.52;100603.72;5038062;28;895;-36
2021/06/25 12:12:57;;;;;;;;;;;;;;;19.32;70.72;100619.75;5056401;28;1914;-36
2021/06/25 12:15:22;;;;;;;;;;;;;;;19.44;70.98;100618.50;5055540;28;951;-36
2021/06/25 12:17:51;;;;;;;;;;;;;;;19.43;71.43;100595.63;5056021;28;850;-37
2021/06/25 12:20:24;;;;;;;;;;;;;;;19.77;70.94;100655.25;5038656;28;521;-37
2021/06/25 12:22:50;;;;;;;;;;;;;;;19.55;69.75;100686.19;5056016;28;1103;-36
2021/06/25 12:25:34;;;;;;;;;;;;;;;19.21;66.57;100796.59;5055877;28;800;-36
2021/06/25 12:28:06;;;;;;;;;;;;;;;18.58;63.86;100748.63;5056503;28;772;-36
2021/06/25 12:30:32;;;;;;;;;;;;;;;18.28;63.86;100693.50;5055424;28;947;-36
2021/06/25 12:33:00;;;;;;;;;;;;;;;18.24;65.04;100661.34;5038124;28;1906;-36
2021/06/25 12:35:32;;;;;;;;;;;;;;;18.26;65.77;100615.91;5038317;28;1244;-36
2021/06/25 12:37:57;;;;;;;;;;;;;;;18.32;68.70;100599.38;5037241;28;896;-36
2021/06/25 12:40:46;;;;;;;;;;;;;;;18.55;69.50;100572.97;5038211;28;750;-36
2021/06/25 12:43:16;;;;;;;;;;;;;;;18.66;68.62;100552.47;5047200;28;1663;-36
2021/06/25 12:45:46;;;;;;;;;;;;;;;18.61;66.47;100567.13;5040028;28;948;-36
2021/06/25 12:48:15;;;;;;;;;;;;;;;18.55;66.74;100550.94;5040062;28;816;-36
2021/06/25 12:50:41;;;;;;;;;;;;;;;18.74;69.23;100545.50;5039862;28;804;-36
2021/06/25 12:53:13;;;;;;;;;;;;;;;18.80;69.48;100549.81;5039476;28;1906;-37
2021/06/25 12:55:38;;;;;;;;;;;;;;;18.79;68.97;100542.69;5038405;28;800;-36
2021/06/25 12:58:04;;;;;;;;;;;;;;;18.63;69.01;100542.03;5039729;28;827;-37
2021/06/25 13:00:29;;;;;;;;;;;;;;;18.78;67.38;100538.28;5041245;28;1011;-37